Terminal Aerodrome Forecast
Issued by NWS

Home | Current Version | Previous Version | Text Only | Print | Product List | Glossary On
Versions: 1 2 3 4 5 6 7 8 9 10 11 12 13 14 15 16 17 18 19
000
FTUS41 KOKX 280500
TAFGON
TAF
KGON 280534Z 2806/2906 23004KT 5SM BR BKN080 BKN250
     FM281300 24006KT 6SM BR SCT030 OVC050
     FM281500 26007KT 6SM -SHRA BR SCT030 OVC050
     FM281900 28008KT 6SM -SHRA BR BKN030 OVC050
     FM290100 32006KT P6SM SCT030 BKN050=

USA.gov is the U.S. government's official web portal to all federal, state and local government web resources and services.